• Join FlightAware (Why Join?)
  • Login
  • US Flag 
07:23AM EDT


 

Airport Tracker/Info


-or-


 

Live Flight TrackerFlight Track Log ✈ N465TP ✈ 24-Oct-2013 ✈ 11WY - KCOD

Flight Track Log - Related Links

Times and Time Zones

All times are in EDT time to prevent confusion due to time zone crossing. See the N465TP flight status page for this flight to view local times or setup timezone preferences in your user account.

Time Position Orientation Groundspeed Altitude Reporting Facility
EDT Latitude Longitude Course Direction KTS MPH feet Rate Location/Type
07:38PM 44.9233 -105.4681 262° West 195 224 17,800  Level Denver Center
07:39PM 44.9164 -105.5406 262° West 192 221 19,200 960 Climbing Denver Center
07:40PM 44.9103 -105.6125 263° West 185 213 19,900 360 Climbing Denver Center
07:41PM 44.9019 -105.6961 262° West 206 237 20,000  Climbing Denver Center
07:42PM 44.8917 -105.8069 263° West 235 270 20,000  Level Salt Lake Center
07:43PM 44.8808 -105.9183 262° West 239 275 20,000  Level Salt Lake Center
07:44PM 44.8725 -105.9939 261° West 240 276 20,000  Level Denver Center
07:45PM 44.8631 -106.0861 262° West 240 276 20,000  Level Denver Center
07:46PM 44.8539 -106.1794 262° West 241 277 20,000  Level Denver Center
07:47PM 44.8439 -106.2722 261° West 240 276 20,000  Level Denver Center
07:48PM 44.8336 -106.3658 261° West 242 278 20,000  Level Denver Center
07:49PM 44.8239 -106.4597 262° West 243 280 20,000  Level Denver Center
07:50PM 44.8128 -106.5708 262° West 241 277 20,000  Level Denver Center
07:51PM 44.8028 -106.6650 262° West 243 280 20,000  Level Denver Center
07:52PM 44.7928 -106.7581 261° West 241 277 20,000  Level Denver Center
07:53PM 44.7817 -106.8522 261° West 243 280 20,000  Level Denver Center
07:55PM 44.7697 -106.9647 262° West 245 282 20,000  Level Salt Lake Center
07:56PM 44.7592 -107.0583 261° West 245 282 20,000  Level Salt Lake Center
07:57PM 44.7481 -107.1528 261° West 244 281 20,000  Level Salt Lake Center
07:58PM 44.7350 -107.2661 261° West 245 282 20,000  Level Salt Lake Center
07:59PM 44.7244 -107.3600 261° West 245 282 20,000  Level Salt Lake Center
08:00PM 44.7119 -107.4519 259° West 242 278 20,000  Level Salt Lake Center
08:01PM 44.7011 -107.5450 261° West 241 277 20,000  Level Salt Lake Center
08:02PM 44.6903 -107.6403 261° West 243 280 20,000  Level Salt Lake Center
08:03PM 44.6789 -107.7347 260° West 244 281 20,000  Level Salt Lake Center
08:04PM 44.6678 -107.8297 261° West 244 281 20,000  Level Salt Lake Center
08:05PM 44.6564 -107.9256 261° West 245 282 20,000  Level Salt Lake Center
08:06PM 44.6444 -108.0214 260° West 247 284 20,000  Level Salt Lake Center
08:07PM 44.6317 -108.1347 261° West 245 282 20,000  Level Salt Lake Center
08:08PM 44.6203 -108.2289 260° West 244 281 20,000 -60 Level Salt Lake Center
08:09PM 44.6094 -108.3233 261° West 244 281 19,900 -840 Descending Salt Lake Center
08:10PM 44.5981 -108.4147 260° West 241 277 18,300 -1,500 Descending Salt Lake Center
08:11PM 44.5881 -108.5019 261° West 233 268 16,900 -1,500 Descending Salt Lake Center
08:12PM 44.5769 -108.5903 260° West 231 266 15,300 -1,620 Descending Salt Lake Center
08:13PM 44.5656 -108.6778 260° West 230 265 13,700 -1,560 Descending Salt Lake Center